Latest Weather Observations for Trepell

IDQ60801

Issued at 4:02 pm EST Sunday 26 April 2015 (issued every 30 minutes, with the page automatically refreshed every 10 minutes)

About weather observations | Map of weather stations | Latest weather observations for QLD | Other Formats
Station Details ID: 037036 Name: TREPELL AIRPORT Lat: -21.84 Lon: 140.89 Height: 266.2 m
Data from the previous 72 hours. | See also: Recent months at Trepell
Date/Time
EST
Temp
°C
App
Temp
°C
Dew
Point
Rel
Hum
%
Delta-T
°C
Wind Press
QNH
hPa
Press
MSL
hPa
Rain
since 9 am
mm
Dir
 
Spd
km/h
Gust
km/h
Spd
kts
Gust
kts
26/04:00pm 25.9 19.1 0.5 19 12.0 S 26 35 14 19 1017.1 1015.6 0.0
26/03:30pm 25.5 19.0 0.2 19 11.9 S 24 32 13 17 1017.0 1015.5 0.0
26/03:00pm 26.5 20.0 2.4 21 11.8 S 26 37 14 20 1017.4 1015.9 0.0
26/02:30pm 25.5 20.1 2.2 22 11.4 SSE 20 30 11 16 1017.7 1016.2 0.0
26/02:00pm 24.1 18.3 2.3 24 10.5 S 22 32 12 17 1018.0 1016.6 0.0
26/01:30pm 24.2 18.2 3.5 26 10.2 S 24 44 13 24 1018.2 1016.8 0.0
26/01:00pm 24.3 19.2 4.1 27 10.1 S 20 32 11 17 1018.8 1017.4 0.0
26/12:30pm 23.0 17.3 3.0 27 9.7 SSE 22 35 12 19 1019.4 1018.0 0.0
26/12:00pm 22.9 17.3 3.4 28 9.5 S 22 30 12 16 1019.9 1018.4 0.0
26/11:30am 22.2 15.9 3.8 30 9.0 SSE 26 35 14 19 1020.5 1019.0 0.0
26/11:00am 21.1 15.1 3.3 31 8.6 S 24 39 13 21 1020.9 1019.4 0.0
26/10:30am 20.7 14.0 3.4 32 8.3 SSE 28 43 15 23 1021.3 1019.9 0.0
26/10:00am 19.5 12.0 3.2 34 7.7 S 32 39 17 21 1021.1 1019.6 0.0
26/09:30am 18.5 12.9 3.6 37 7.1 S 22 32 12 17 1021.3 1019.9 0.0
26/09:00am 16.1 10.7 2.5 40 6.2 S 20 26 11 14 1021.0 1019.5 0.0
26/08:30am 14.2 8.6 1.5 42 5.6 S 20 28 11 15 1020.7 1019.2 0.0
26/08:00am 12.4 7.2 0.2 43 5.1 SSW 17 22 9 12 1020.5 1019.0 0.0
26/07:30am 11.1 6.6 -0.1 46 4.6 SW 13 17 7 9 1020.3 1018.8 0.0
26/07:00am 9.9 5.3 -0.9 47 4.3 SW 13 17 7 9 1019.9 1018.4 0.0
26/06:30am 10.3 5.7 -1.1 45 4.6 SSW 13 19 7 10 1019.6 1018.2 0.0
26/06:00am 10.3 5.3 -1.4 44 4.6 SSW 15 19 8 10 1019.5 1018.1 0.0
26/05:30am 10.1 5.4 -1.9 43 4.7 SW 13 17 7 9 1019.5 1018.1 0.0
26/05:00am 9.8 5.0 -2.8 41 4.8 SW 13 15 7 8 1019.3 1017.9 0.0
26/04:30am 9.9 5.4 -3.0 40 4.9 SW 11 13 6 7 1019.4 1018.0 0.0
26/04:00am 10.3 5.8 -3.0 39 5.1 SSW 11 15 6 8 1019.2 1017.8 0.0
26/03:30am 11.2 6.4 -2.9 37 5.5 SSW 13 17 7 9 1018.9 1017.5 0.0
26/03:00am 11.5 7.0 -3.0 36 5.6 SSW 11 15 6 8 1019.1 1017.7 0.0
26/02:30am 12.0 7.1 -3.0 35 5.8 SSW 13 17 7 9 1019.2 1017.8 0.0
26/02:00am 13.0 7.8 -2.5 34 6.1 SSW 15 19 8 10 1019.1 1017.7 0.0
26/01:30am 12.9 8.5 -2.6 34 6.1 SSW 11 15 6 8 1019.1 1017.7 0.0
26/01:00am 13.2 8.4 -2.7 33 6.3 SSW 13 17 7 9 1019.3 1017.9 0.0
26/12:30am 13.8 9.0 -2.6 32 6.5 SSW 13 17 7 9 1019.4 1018.0 0.0
26/12:00am 14.1 9.3 -2.3 32 6.6 SSW 13 17 7 9 1019.5 1018.1 0.0
 
Date/Time
EST
Temp
°C
App
Temp
°C
Dew
Point
Rel
Hum
%
Delta-T
°C
Wind Press
QNH
hPa
Press
MSL
hPa
Rain
since 9 am
mm
Dir
 
Spd
km/h
Gust
km/h
Spd
kts
Gust
kts
25/11:30pm 14.3 9.9 -2.6 31 6.8 SSW 11 15 6 8 1019.6 1018.2 0.0
25/11:00pm 15.4 10.7 -1.6 31 7.0 SSW 13 17 7 9 1019.4 1018.0 0.0
25/10:30pm 15.6 11.6 -1.9 30 7.2 S 9 11 5 6 1019.5 1018.1 0.0
25/10:00pm 17.1 12.5 -1.1 29 7.7 SSW 13 19 7 10 1019.4 1018.0 0.0
25/09:30pm 17.9 12.2 -0.8 28 8.1 SSW 19 24 10 13 1019.5 1018.1 0.0
25/09:00pm 18.7 12.9 -0.2 28 8.3 SSW 20 24 11 13 1019.2 1017.8 0.0
25/08:30pm 19.4 13.7 0.4 28 8.5 SSW 20 26 11 14 1018.7 1017.3 0.0
25/08:00pm 20.2 14.6 1.1 28 8.7 SSW 20 28 11 15 1018.2 1016.8 0.0
25/07:30pm 20.8 14.7 0.6 26 9.2 SSW 22 28 12 15 1017.7 1016.2 0.0
25/07:00pm 21.4 14.6 0.6 25 9.5 SSW 26 35 14 19 1017.1 1015.6 0.0
25/06:30pm 22.1 15.6 0.0 23 10.1 SSW 24 35 13 19 1016.8 1015.3 0.0
25/06:00pm 23.1 15.4 0.2 22 10.5 SSW 30 37 16 20 1016.4 1014.9 0.0
25/05:30pm 24.1 16.0 -0.2 20 11.2 SSW 32 41 17 22 1016.0 1014.5 0.0
25/05:00pm 24.7 16.6 -0.4 19 11.6 SSW 32 43 17 23 1015.6 1014.2 0.0
25/04:30pm 25.0 16.9 -0.2 19 11.7 S 32 46 17 25 1015.3 1013.9 0.0
25/04:00pm 25.7 17.7 0.4 19 11.9 SSW 32 46 17 25 1015.1 1013.7 0.0
25/03:30pm 26.0 17.9 -0.1 18 12.2 SSW 32 46 17 25 1014.9 1013.5 0.0
25/03:00pm 26.1 18.1 0.7 19 12.1 SSW 32 44 17 24 1014.9 1013.5 0.0
25/02:30pm 25.6 17.6 1.7 21 11.5 SSW 33 50 18 27 1015.2 1013.8 0.0
25/02:10pm 26.1 18.4 2.1 21 11.7 SSW 32 50 17 27 1015.3 1013.9 0.0
25/02:00pm 25.6 17.9 2.3 22 11.4 SSW 32 48 17 26 1015.4 1014.0 0.0
25/01:30pm 26.4 19.3 3.6 23 11.5 SSW 30 43 16 23 1015.6 1014.2 0.0
25/01:00pm 25.4 17.7 3.4 24 10.9 S 33 44 18 24 1016.1 1014.6 0.0
25/12:30pm 24.7 17.0 3.4 25 10.6 SSW 33 44 18 24 1016.5 1015.0 0.0
25/12:00pm 24.0 16.5 3.3 26 10.2 S 32 41 17 22 1017.0 1015.5 0.0
25/11:30am 23.7 16.1 3.1 26 10.1 S 32 43 17 23 1017.4 1015.9 0.0
25/11:00am 23.3 15.4 2.2 25 10.1 SSW 33 44 18 24 1017.7 1016.2 0.0
25/10:30am 23.4 15.6 1.7 24 10.3 S 32 41 17 22 1017.9 1016.5 0.0
25/10:00am 22.2 14.1 0.7 24 9.9 S 33 44 18 24 1017.8 1016.3 0.0
25/09:30am 20.8 13.5 0.1 25 9.4 SSW 28 35 15 19 1017.7 1016.2 0.0
25/09:00am 20.6 14.9 0.4 26 9.2 S 20 28 11 15 1017.3 1015.8 0.0
25/08:30am 18.4 13.1 -0.9 27 8.4 S 17 24 9 13 1017.0 1015.5 0.0
25/08:00am 16.7 11.6 -1.9 28 7.8 SSW 15 20 8 11 1016.7 1015.2 0.0
25/07:30am 15.1 9.8 -3.3 28 7.4 SW 15 19 8 10 1016.3 1014.8 0.0
25/07:00am 13.9 9.0 -3.8 29 6.9 SW 13 15 7 8 1015.7 1014.3 0.0
25/06:30am 14.0 9.1 -3.7 29 6.9 SW 13 17 7 9 1015.4 1014.0 0.0
25/06:00am 14.5 9.2 -3.8 28 7.2 SW 15 19 8 10 1015.1 1013.7 0.0
25/05:30am 14.4 9.4 -3.9 28 7.2 SW 13 17 7 9 1014.9 1013.5 0.0
25/05:00am 14.9 10.0 -3.4 28 7.3 SW 13 13 7 7 1014.9 1013.5 0.0
25/04:30am 15.0 10.5 -3.3 28 7.3 SW 11 13 6 7 1014.7 1013.3 0.0
25/04:00am 15.3 10.4 -3.1 28 7.4 SW 13 15 7 8 1014.5 1013.0 0.0
25/03:30am 15.7 11.2 -3.2 27 7.6 SW 11 13 6 7 1014.6 1013.2 0.0
25/03:00am 16.0 11.5 -3.0 27 7.7 SW 11 11 6 6 1014.4 1012.9 0.0
25/02:30am 16.2 12.1 -3.3 26 7.9 SW 9 9 5 5 1014.4 1012.9 0.0
25/02:00am 16.7 12.2 -2.9 26 8.0 SSW 11 15 6 8 1014.4 1012.9 0.0
25/01:30am 17.4 13.0 -2.8 25 8.3 SSW 11 15 6 8 1014.5 1013.0 0.0
25/01:00am 17.7 13.2 -3.1 24 8.6 SSW 11 13 6 7 1014.7 1013.3 0.0
25/12:30am 18.2 13.4 -2.7 24 8.7 SW 13 15 7 8 1014.8 1013.4 0.0
25/12:00am 18.7 13.9 -2.8 23 9.0 SW 13 17 7 9 1014.7 1013.3 0.0
 
Date/Time
EST
Temp
°C
App
Temp
°C
Dew
Point
Rel
Hum
%
Delta-T
°C
Wind Press
QNH
hPa
Press
MSL
hPa
Rain
since 9 am
mm
Dir
 
Spd
km/h
Gust
km/h
Spd
kts
Gust
kts
24/11:30pm 19.0 14.1 -3.2 22 9.2 SW 13 15 7 8 1014.7 1013.3 0.0
24/11:00pm 19.6 14.7 -3.3 21 9.6 SSW 13 17 7 9 1014.6 1013.2 0.0
24/10:30pm 20.6 15.4 -3.1 20 10.0 SSW 15 19 8 10 1014.4 1012.9 0.0
24/10:00pm 21.2 15.9 -3.3 19 10.4 SSW 15 17 8 9 1014.5 1013.0 0.0
24/09:30pm 21.2 16.2 -4.0 18 10.5 SW 13 17 7 9 1014.4 1012.9 0.0
24/09:00pm 21.8 16.8 -4.3 17 10.9 SW 13 17 7 9 1014.2 1012.7 0.0
24/08:30pm 21.9 17.2 -5.0 16 11.1 SW 11 13 6 7 1014.0 1012.5 0.0
24/08:00pm 22.6 17.9 -5.3 15 11.5 SW 11 13 6 7 1013.7 1012.2 0.0
24/07:30pm 23.7 18.7 -4.4 15 11.9 SW 13 17 7 9 1013.3 1011.8 0.0
24/07:00pm 24.6 19.6 -4.6 14 12.5 SW 13 15 7 8 1012.8 1011.3 0.0
24/06:30pm 25.8 20.5 -3.7 14 12.9 SSW 15 20 8 11 1012.4 1010.9 0.0
24/06:00pm 26.8 20.7 -3.9 13 13.5 SW 19 26 10 14 1012.1 1010.6 0.0
24/05:30pm 27.9 21.9 -3.0 13 14.0 SW 19 24 10 13 1011.7 1010.3 0.0
24/05:00pm 28.1 22.1 -2.9 13 14.1 S 19 28 10 15 1011.6 1010.2 0.0
24/04:30pm 28.0 22.4 -3.0 13 14.0 SSW 17 26 9 14 1011.5 1010.1 0.0
24/04:00pm 28.4 22.5 -2.6 13 14.2 SSW 19 28 10 15 1011.5 1010.1 0.0
24/03:30pm 28.8 22.9 -2.3 13 14.3 SSW 19 28 10 15 1011.5 1010.1 0.0
24/03:00pm 28.3 22.3 -2.7 13 14.1 SSW 19 32 10 17 1011.5 1010.1 0.0
24/02:30pm 27.7 22.6 -2.2 14 13.7 S 15 24 8 13 1011.7 1010.3 0.0
24/02:00pm 28.6 23.7 -0.5 15 13.8 SW 15 24 8 13 1012.0 1010.5 0.0
24/01:30pm 27.7 22.3 -1.3 15 13.5 SSW 17 24 9 13 1012.5 1011.0 0.0
24/01:00pm 26.6 21.2 -1.3 16 12.9 S 17 30 9 16 1012.9 1011.4 0.0
24/12:30pm 26.7 21.8 -0.3 17 12.7 SSE 15 22 8 12 1013.4 1011.9 0.0
24/12:00pm 25.9 20.7 -0.2 18 12.2 S 17 28 9 15 1014.0 1012.5 0.0
24/11:30am 25.2 19.9 -0.8 18 12.0 SSW 17 28 9 15 1014.5 1013.0 0.0
24/11:00am 25.3 20.5 0.0 19 11.8 SSW 15 22 8 12 1015.0 1013.6 0.0
24/10:30am 24.2 18.9 -0.9 19 11.4 SSE 17 22 9 12 1015.2 1013.8 0.0
24/10:00am 22.8 17.8 -1.3 20 10.8 S 15 22 8 12 1015.4 1014.0 0.0
24/09:30am 21.5 16.1 -1.1 22 10.0 S 17 20 9 11 1015.5 1014.1 0.0
24/09:00am 20.0 14.7 -0.6 25 9.1 SSW 17 24 9 13 1015.5 1014.1 0.0
24/08:30am 19.1 13.8 -0.3 27 8.6 SSW 17 20 9 11 1015.2 1013.8 0.0
24/08:00am 18.3 13.8 -0.5 28 8.2 SW 13 17 7 9 1014.8 1013.4 0.0
24/07:30am 16.8 12.6 -0.9 30 7.6 SW 11 15 6 8 1014.5 1013.0 0.0
24/07:00am 16.3 12.0 -1.7 29 7.5 SW 11 13 6 7 1014.1 1012.6 0.0
24/06:30am 16.7 12.8 -1.4 29 7.7 SSW 9 13 5 7 1013.7 1012.2 0.0
24/06:00am 16.8 12.5 -1.3 29 7.7 SW 11 13 6 7 1013.4 1011.9 0.0
24/05:30am 16.8 12.9 -1.8 28 7.8 SW 9 13 5 7 1013.2 1011.7 0.0
24/05:00am 17.3 13.0 -1.9 27 8.1 SW 11 13 6 7 1013.1 1011.6 0.0
24/04:30am 17.5 13.2 -1.7 27 8.1 SW 11 13 6 7 1013.1 1011.6 0.0
24/04:00am 17.6 13.3 -1.6 27 8.2 SW 11 13 6 7 1013.2 1011.7 0.0
24/03:30am 17.9 13.6 -1.9 26 8.4 SW 11 13 6 7 1013.1 1011.6 0.0
24/03:00am 17.9 13.2 -1.9 26 8.4 SW 13 15 7 8 1013.1 1011.6 0.0
24/02:30am 17.9 13.2 -1.9 26 8.4 SW 13 15 7 8 1013.0 1011.5 0.0
24/02:00am 18.0 14.1 -1.8 26 8.4 SW 9 9 5 5 1013.0 1011.5 0.0
24/01:30am 18.0 14.1 -1.8 26 8.4 SW 9 9 5 5 1013.0 1011.5 0.0
24/01:00am 18.1 14.6 -1.7 26 8.4 SW 7 9 4 5 1013.2 1011.7 0.0
24/12:30am 18.0 14.0 -2.3 25 8.5 SW 9 11 5 6 1013.5 1012.0 0.0
24/12:00am 17.8 13.4 -2.5 25 8.5 SSW 11 13 6 7 1013.6 1012.1 0.0
 
Date/Time
EST
Temp
°C
App
Temp
°C
Dew
Point
Rel
Hum
%
Delta-T
°C
Wind Press
QNH
hPa
Press
MSL
hPa
Rain
since 9 am
mm
Dir
 
Spd
km/h
Gust
km/h
Spd
kts
Gust
kts
23/11:30pm 17.8 13.8 -2.5 25 8.5 SW 9 11 5 6 1013.8 1012.3 0.0
23/11:00pm 18.4 14.7 -2.5 24 8.8 SW 7 9 4 5 1014.1 1012.6 0.0
23/10:30pm 18.3 13.9 -2.6 24 8.7 SW 11 13 6 7 1014.3 1012.8 0.0
23/10:00pm 18.9 14.5 -2.1 24 8.9 SW 11 13 6 7 1014.2 1012.7 0.0
23/09:30pm 20.3 16.7 -2.1 22 9.6 SSW 7 9 4 5 1014.0 1012.5 0.0
23/09:00pm 20.5 16.2 -1.9 22 9.7 S 11 13 6 7 1013.9 1012.4 0.0
23/08:30pm 20.8 16.9 -1.7 22 9.8 SSE 9 11 5 6 1014.2 1012.7 0.0
23/08:00pm 21.2 17.2 -2.0 21 10.1 S 9 13 5 7 1014.4 1012.9 0.0
23/07:30pm 22.7 18.4 -1.4 20 10.7 S 11 13 6 7 1013.8 1012.3 0.0
23/07:00pm 23.6 19.0 -1.3 19 11.2 S 13 17 7 9 1013.5 1012.0 0.0
23/06:30pm 24.5 19.8 -2.1 17 11.9 S 13 19 7 10 1013.2 1011.7 0.0
23/06:00pm 25.4 19.9 -2.2 16 12.4 S 17 20 9 11 1012.7 1011.2 0.0
23/05:30pm 26.4 21.4 -1.4 16 12.8 SSE 15 22 8 12 1012.5 1011.0 0.0
23/05:00pm 26.8 21.4 -1.1 16 12.9 SSW 17 24 9 13 1012.5 1011.0 0.0
23/04:30pm 26.9 21.9 -1.0 16 13.0 S 15 28 8 15 1012.4 1010.9 0.0

Other Formats:

Comma delimited format used in spreadsheet applications
http://www.bom.gov.au/fwo/IDQ60801/IDQ60801.94338.axf

JavaScript Object Notation format (JSON) in row-major order
http://www.bom.gov.au/fwo/IDQ60801/IDQ60801.94338.json